sensor_id;sensor_type;location;lat;lon;timestamp;pressure;altitude;pressure_sealevel;temperature;humidity
21547;BME280;41275;51.912;4.388;2022-09-27T00:01:11;99760.91;;;16.13;59.28
21547;BME280;41275;51.912;4.388;2022-09-27T00:06:32;99766.22;;;16.13;59.19
21547;BME280;41275;51.912;4.388;2022-09-27T00:11:54;99764.00;;;16.01;58.95
21547;BME280;41275;51.912;4.388;2022-09-27T00:17:15;99763.47;;;15.80;59.15
21547;BME280;41275;51.912;4.388;2022-09-27T00:22:36;99753.53;;;15.86;59.34
21547;BME280;41275;51.912;4.388;2022-09-27T00:27:57;99757.56;;;16.02;58.70
21547;BME280;41275;51.912;4.388;2022-09-27T00:33:19;99773.59;;;16.21;58.21
21547;BME280;41275;51.912;4.388;2022-09-27T00:38:41;99778.50;;;16.33;58.48
21547;BME280;41275;51.912;4.388;2022-09-27T00:49:53;99782.75;;;16.34;57.63
21547;BME280;41275;51.912;4.388;2022-09-27T00:55:23;99801.84;;;16.22;57.95
21547;BME280;41275;51.912;4.388;2022-09-27T01:00:50;99798.75;;;16.15;56.56
21547;BME280;41275;51.912;4.388;2022-09-27T01:06:12;99807.34;;;15.69;56.20
21547;BME280;41275;51.912;4.388;2022-09-27T01:11:44;99803.63;;;15.41;57.50
21547;BME280;41275;51.912;4.388;2022-09-27T01:29:03;99801.78;;;15.12;58.50
21547;BME280;41275;51.912;4.388;2022-09-27T01:45:29;99791.47;;;15.06;59.12
21547;BME280;41275;51.912;4.388;2022-09-27T01:50:56;99781.03;;;15.09;59.46
21547;BME280;41275;51.912;4.388;2022-09-27T02:01:51;99781.50;;;15.40;59.12
21547;BME280;41275;51.912;4.388;2022-09-27T02:07:37;99777.41;;;15.48;58.80
21547;BME280;41275;51.912;4.388;2022-09-27T02:13:05;99775.72;;;15.57;59.12
21547;BME280;41275;51.912;4.388;2022-09-27T02:19:00;99776.63;;;15.71;58.30
21547;BME280;41275;51.912;4.388;2022-09-27T02:24:39;99801.84;;;15.84;58.38
21547;BME280;41275;51.912;4.388;2022-09-27T02:30:06;99791.59;;;15.73;58.35
21547;BME280;41275;51.912;4.388;2022-09-27T02:35:31;99793.94;;;15.74;57.85
21547;BME280;41275;51.912;4.388;2022-09-27T02:40:53;99786.47;;;15.76;56.24
21547;BME280;41275;51.912;4.388;2022-09-27T02:52:41;99800.53;;;15.82;55.69
21547;BME280;41275;51.912;4.388;2022-09-27T03:09:27;99792.41;;;16.11;55.90
21547;BME280;41275;51.912;4.388;2022-09-27T03:14:49;99783.13;;;16.08;56.34
21547;BME280;41275;51.912;4.388;2022-09-27T03:20:10;99785.13;;;16.16;56.78
21547;BME280;41275;51.912;4.388;2022-09-27T03:25:31;99778.56;;;16.28;56.92
21547;BME280;41275;51.912;4.388;2022-09-27T03:30:52;99785.75;;;16.46;57.00
21547;BME280;41275;51.912;4.388;2022-09-27T03:36:13;99809.53;;;16.48;56.74
21547;BME280;41275;51.912;4.388;2022-09-27T03:41:35;99812.25;;;16.42;56.80
21547;BME280;41275;51.912;4.388;2022-09-27T03:46:56;99809.72;;;16.13;57.10
21547;BME280;41275;51.912;4.388;2022-09-27T03:52:18;99807.03;;;15.94;57.21
21547;BME280;41275;51.912;4.388;2022-09-27T03:57:43;99821.53;;;15.88;57.14
21547;BME280;41275;51.912;4.388;2022-09-27T04:03:06;99808.75;;;15.37;56.64
21547;BME280;41275;51.912;4.388;2022-09-27T04:08:27;99794.94;;;15.01;57.68
21547;BME280;41275;51.912;4.388;2022-09-27T04:13:49;99786.94;;;15.06;57.58
21547;BME280;41275;51.912;4.388;2022-09-27T04:19:11;99797.06;;;15.04;58.61
21547;BME280;41275;51.912;4.388;2022-09-27T04:24:32;99799.72;;;15.04;58.65
21547;BME280;41275;51.912;4.388;2022-09-27T04:29:53;99806.13;;;15.03;58.70
21547;BME280;41275;51.912;4.388;2022-09-27T04:35:15;99800.88;;;14.93;59.00
21547;BME280;41275;51.912;4.388;2022-09-27T04:40:54;99800.88;;;14.93;59.10
21547;BME280;41275;51.912;4.388;2022-09-27T04:46:16;99826.22;;;14.90;59.09
21547;BME280;41275;51.912;4.388;2022-09-27T04:51:37;99832.75;;;14.69;59.37
21547;BME280;41275;51.912;4.388;2022-09-27T04:56:58;99818.75;;;14.58;59.35
21547;BME280;41275;51.912;4.388;2022-09-27T05:02:19;99806.97;;;14.64;59.19
21547;BME280;41275;51.912;4.388;2022-09-27T05:07:41;99807.22;;;14.68;59.49
21547;BME280;41275;51.912;4.388;2022-09-27T05:13:02;99789.25;;;14.84;59.60
21547;BME280;41275;51.912;4.388;2022-09-27T05:18:23;99781.84;;;14.76;59.29
21547;BME280;41275;51.912;4.388;2022-09-27T05:23:44;99783.06;;;14.93;59.72
21547;BME280;41275;51.912;4.388;2022-09-27T05:29:05;99787.63;;;15.17;59.41
21547;BME280;41275;51.912;4.388;2022-09-27T05:34:27;99780.66;;;15.21;58.97
21547;BME280;41275;51.912;4.388;2022-09-27T05:39:51;99783.50;;;15.30;58.95
21547;BME280;41275;51.912;4.388;2022-09-27T05:45:12;99795.28;;;15.47;59.05
21547;BME280;41275;51.912;4.388;2022-09-27T05:50:34;99803.38;;;15.66;58.76
21547;BME280;41275;51.912;4.388;2022-09-27T05:55:55;99797.25;;;15.66;58.97
21547;BME280;41275;51.912;4.388;2022-09-27T06:01:20;99803.50;;;15.80;58.79
21547;BME280;41275;51.912;4.388;2022-09-27T06:06:41;99795.94;;;16.06;58.91
21547;BME280;41275;51.912;4.388;2022-09-27T06:12:02;99795.66;;;16.27;58.74
21547;BME280;41275;51.912;4.388;2022-09-27T06:17:23;99791.47;;;16.39;58.18
21547;BME280;41275;51.912;4.388;2022-09-27T06:22:45;99793.28;;;16.44;58.06
21547;BME280;41275;51.912;4.388;2022-09-27T06:28:07;99805.19;;;16.52;57.58
21547;BME280;41275;51.912;4.388;2022-09-27T06:33:29;99807.78;;;16.57;57.72
21547;BME280;41275;51.912;4.388;2022-09-27T06:38:51;99804.22;;;16.61;57.83
21547;BME280;41275;51.912;4.388;2022-09-27T06:44:12;99806.69;;;16.58;58.07
21547;BME280;41275;51.912;4.388;2022-09-27T06:49:34;99808.50;;;16.62;57.33
21547;BME280;41275;51.912;4.388;2022-09-27T06:54:56;99806.00;;;16.66;56.99
21547;BME280;41275;51.912;4.388;2022-09-27T07:00:17;99815.75;;;16.95;55.70
21547;BME280;41275;51.912;4.388;2022-09-27T07:05:56;99822.56;;;16.87;55.03
21547;BME280;41275;51.912;4.388;2022-09-27T07:11:19;99820.16;;;16.85;55.01
21547;BME280;41275;51.912;4.388;2022-09-27T07:16:42;99825.84;;;16.98;54.57
21547;BME280;41275;51.912;4.388;2022-09-27T07:22:03;99833.31;;;17.14;54.02
21547;BME280;41275;51.912;4.388;2022-09-27T07:27:24;99830.97;;;17.27;54.07
21547;BME280;41275;51.912;4.388;2022-09-27T07:32:46;99826.63;;;17.31;53.25
21547;BME280;41275;51.912;4.388;2022-09-27T07:38:10;99832.44;;;17.33;52.66
21547;BME280;41275;51.912;4.388;2022-09-27T07:43:33;99826.63;;;17.31;51.92
21547;BME280;41275;51.912;4.388;2022-09-27T07:48:54;99826.63;;;17.31;51.29
21547;BME280;41275;51.912;4.388;2022-09-27T07:54:15;99846.63;;;17.33;50.71
21547;BME280;41275;51.912;4.388;2022-09-27T07:59:36;99893.38;;;17.36;50.88
21547;BME280;41275;51.912;4.388;2022-09-27T08:04:58;99884.78;;;16.68;51.79
21547;BME280;41275;51.912;4.388;2022-09-27T08:10:19;99882.72;;;16.23;52.98
21547;BME280;41275;51.912;4.388;2022-09-27T08:15:41;99880.44;;;16.16;53.53
21547;BME280;41275;51.912;4.388;2022-09-27T08:21:02;99889.72;;;16.18;54.21
21547;BME280;41275;51.912;4.388;2022-09-27T08:26:26;99885.69;;;16.21;53.97
21547;BME280;41275;51.912;4.388;2022-09-27T08:31:50;99893.56;;;16.12;54.78
21547;BME280;41275;51.912;4.388;2022-09-27T08:37:11;99898.97;;;16.26;55.05
21547;BME280;41275;51.912;4.388;2022-09-27T08:42:45;99896.34;;;16.45;55.22
21547;BME280;41275;51.912;4.388;2022-09-27T08:48:10;99899.41;;;16.76;55.12
21547;BME280;41275;51.912;4.388;2022-09-27T08:59:15;99895.56;;;17.34;54.27
21547;BME280;41275;51.912;4.388;2022-09-27T09:04:41;99889.28;;;17.57;54.10
21547;BME280;41275;51.912;4.388;2022-09-27T09:15:44;99880.69;;;18.02;53.50
21547;BME280;41275;51.912;4.388;2022-09-27T09:38:18;99919.94;;;16.14;55.32
21547;BME280;41275;51.912;4.388;2022-09-27T09:44:15;99929.94;;;15.16;55.87
21547;BME280;41275;51.912;4.388;2022-09-27T09:49:43;99930.63;;;14.92;56.56
21547;BME280;41275;51.912;4.388;2022-09-27T09:55:14;99921.38;;;14.80;57.18
21547;BME280;41275;51.912;4.388;2022-09-27T10:00:39;99920.22;;;14.96;57.43
21547;BME280;41275;51.912;4.388;2022-09-27T10:06:01;99899.81;;;15.15;57.66
21547;BME280;41275;51.912;4.388;2022-09-27T10:11:26;99912.66;;;15.42;57.60
21547;BME280;41275;51.912;4.388;2022-09-27T10:16:54;99912.84;;;15.51;57.57
21547;BME280;41275;51.912;4.388;2022-09-27T10:22:37;99917.53;;;15.64;57.62
21547;BME280;41275;51.912;4.388;2022-09-27T10:28:00;99911.03;;;15.76;57.82
21547;BME280;41275;51.912;4.388;2022-09-27T10:33:21;99908.88;;;16.02;57.68
21547;BME280;41275;51.912;4.388;2022-09-27T10:38:51;99904.09;;;15.99;57.79
21547;BME280;41275;51.912;4.388;2022-09-27T10:49:40;99892.06;;;16.25;57.33
21547;BME280;41275;51.912;4.388;2022-09-27T10:55:20;99902.69;;;16.49;56.27
21547;BME280;41275;51.912;4.388;2022-09-27T11:00:42;99898.66;;;16.71;56.17
21547;BME280;41275;51.912;4.388;2022-09-27T11:11:44;99889.44;;;17.47;54.85
21547;BME280;41275;51.912;4.388;2022-09-27T11:17:12;99887.72;;;17.98;54.14
21547;BME280;41275;51.912;4.388;2022-09-27T11:23:02;99875.38;;;18.38;54.10
21547;BME280;41275;51.912;4.388;2022-09-27T11:39:49;99875.69;;;19.18;51.91
21547;BME280;41275;51.912;4.388;2022-09-27T11:51:12;99865.28;;;18.94;48.91
21547;BME280;41275;51.912;4.388;2022-09-27T11:56:57;99865.97;;;18.99;46.80
21547;BME280;41275;51.912;4.388;2022-09-27T12:13:42;99842.34;;;19.64;42.99
21547;BME280;41275;51.912;4.388;2022-09-27T12:19:12;99830.16;;;21.48;40.94
21547;BME280;41275;51.912;4.388;2022-09-27T12:24:34;99840.44;;;20.47;38.68
21547;BME280;41275;51.912;4.388;2022-09-27T12:29:56;99828.69;;;20.00;38.83
21547;BME280;41275;51.912;4.388;2022-09-27T12:35:26;99823.63;;;19.81;38.84
21547;BME280;41275;51.912;4.388;2022-09-27T12:40:51;99828.00;;;20.60;38.79
21547;BME280;41275;51.912;4.388;2022-09-27T12:52:09;99824.22;;;19.69;39.06
21547;BME280;41275;51.912;4.388;2022-09-27T12:57:42;99811.03;;;20.25;38.97
21547;BME280;41275;51.912;4.388;2022-09-27T13:03:33;99810.56;;;20.66;38.75
21547;BME280;41275;51.912;4.388;2022-09-27T13:15:04;99800.72;;;20.96;37.14
21547;BME280;41275;51.912;4.388;2022-09-27T13:25:48;99795.53;;;20.04;38.75
21547;BME280;41275;51.912;4.388;2022-09-27T13:31:13;99794.72;;;19.95;38.24
21547;BME280;41275;51.912;4.388;2022-09-27T13:36:35;99793.13;;;19.85;38.47
21547;BME280;41275;51.912;4.388;2022-09-27T13:42:11;99802.75;;;19.69;38.49
21547;BME280;41275;51.912;4.388;2022-09-27T13:47:43;99793.91;;;19.77;38.61
21547;BME280;41275;51.912;4.388;2022-09-27T13:53:15;99782.38;;;19.77;39.16
21547;BME280;41275;51.912;4.388;2022-09-27T14:09:37;99774.03;;;18.99;40.97
21547;BME280;41275;51.912;4.388;2022-09-27T14:15:01;99779.72;;;18.38;42.59
21547;BME280;41275;51.912;4.388;2022-09-27T14:20:37;99766.09;;;17.76;44.70
21547;BME280;41275;51.912;4.388;2022-09-27T14:26:00;99768.19;;;17.65;47.02
21547;BME280;41275;51.912;4.388;2022-09-27T14:31:23;99773.06;;;17.77;47.59
21547;BME280;41275;51.912;4.388;2022-09-27T14:36:44;99767.34;;;18.06;47.90
21547;BME280;41275;51.912;4.388;2022-09-27T14:42:26;99755.56;;;18.30;46.68
21547;BME280;41275;51.912;4.388;2022-09-27T14:47:50;99759.50;;;18.55;45.91
21547;BME280;41275;51.912;4.388;2022-09-27T14:53:21;99761.84;;;18.25;45.89
21547;BME280;41275;51.912;4.388;2022-09-27T14:58:44;99760.94;;;17.94;46.71
21547;BME280;41275;51.912;4.388;2022-09-27T15:04:10;99757.00;;;17.36;48.79
21547;BME280;41275;51.912;4.388;2022-09-27T15:09:33;99747.09;;;17.50;49.80
21547;BME280;41275;51.912;4.388;2022-09-27T15:14:58;99741.50;;;17.88;49.32
21547;BME280;41275;51.912;4.388;2022-09-27T15:20:26;99743.75;;;18.53;49.19
21547;BME280;41275;51.912;4.388;2022-09-27T15:26:24;99740.91;;;18.72;48.55
21547;BME280;41275;51.912;4.388;2022-09-27T15:32:03;99730.84;;;18.78;48.58
21547;BME280;41275;51.912;4.388;2022-09-27T15:37:27;99723.16;;;18.85;48.21
21547;BME280;41275;51.912;4.388;2022-09-27T15:42:58;99710.38;;;18.82;47.91
21547;BME280;41275;51.912;4.388;2022-09-27T15:48:21;99704.50;;;18.71;47.58
21547;BME280;41275;51.912;4.388;2022-09-27T15:53:42;99707.53;;;18.56;47.80
21547;BME280;41275;51.912;4.388;2022-09-27T15:59:04;99706.44;;;18.57;48.94
21547;BME280;41275;51.912;4.388;2022-09-27T16:04:28;99704.06;;;18.55;49.87
21547;BME280;41275;51.912;4.388;2022-09-27T16:09:51;99693.97;;;18.52;50.35
21547;BME280;41275;51.912;4.388;2022-09-27T16:15:15;99703.38;;;18.50;50.01
21547;BME280;41275;51.912;4.388;2022-09-27T16:20:37;99702.75;;;18.44;50.44
21547;BME280;41275;51.912;4.388;2022-09-27T16:25:58;99688.19;;;18.36;50.37
21547;BME280;41275;51.912;4.388;2022-09-27T16:31:20;99681.31;;;18.22;50.59
21547;BME280;41275;51.912;4.388;2022-09-27T16:36:41;99685.75;;;18.26;50.84
21547;BME280;41275;51.912;4.388;2022-09-27T16:42:03;99689.75;;;18.15;50.85
21547;BME280;41275;51.912;4.388;2022-09-27T16:47:27;99688.91;;;18.06;51.02
21547;BME280;41275;51.912;4.388;2022-09-27T16:52:48;99678.53;;;18.04;51.09
21547;BME280;41275;51.912;4.388;2022-09-27T16:58:10;99671.88;;;18.02;51.12
21547;BME280;41275;51.912;4.388;2022-09-27T17:03:31;99668.22;;;17.98;51.17
21547;BME280;41275;51.912;4.388;2022-09-27T17:08:52;99671.13;;;17.87;51.16
21547;BME280;41275;51.912;4.388;2022-09-27T17:14:14;99677.09;;;17.71;50.96
21547;BME280;41275;51.912;4.388;2022-09-27T17:19:37;99662.16;;;17.56;51.49
21547;BME280;41275;51.912;4.388;2022-09-27T17:24:59;99661.63;;;17.45;51.96
21547;BME280;41275;51.912;4.388;2022-09-27T17:30:20;99675.06;;;17.40;52.04
21547;BME280;41275;51.912;4.388;2022-09-27T17:41:24;99679.88;;;16.69;53.08
21547;BME280;41275;51.912;4.388;2022-09-27T17:46:48;99680.25;;;15.78;53.93
21547;BME280;41275;51.912;4.388;2022-09-27T17:52:29;99667.25;;;15.53;55.66
21547;BME280;41275;51.912;4.388;2022-09-27T17:57:54;99666.00;;;15.26;55.56
21547;BME280;41275;51.912;4.388;2022-09-27T18:03:15;99675.06;;;15.25;55.86
21547;BME280;41275;51.912;4.388;2022-09-27T18:08:36;99696.16;;;15.45;55.57
21547;BME280;41275;51.912;4.388;2022-09-27T18:13:58;99704.31;;;15.30;55.37
21547;BME280;41275;51.912;4.388;2022-09-27T18:19:22;99702.56;;;15.20;55.62
21547;BME280;41275;51.912;4.388;2022-09-27T18:24:44;99692.25;;;15.14;56.04
21547;BME280;41275;51.912;4.388;2022-09-27T18:30:06;99678.28;;;15.46;56.27
21547;BME280;41275;51.912;4.388;2022-09-27T18:35:33;99689.78;;;15.65;55.84
21547;BME280;41275;51.912;4.388;2022-09-27T18:40:54;99682.16;;;15.78;55.77
21547;BME280;41275;51.912;4.388;2022-09-27T18:46:20;99696.34;;;15.92;56.13
21547;BME280;41275;51.912;4.388;2022-09-27T18:51:42;99681.41;;;15.91;56.09
21547;BME280;41275;51.912;4.388;2022-09-27T18:57:06;99681.13;;;15.92;56.23
21547;BME280;41275;51.912;4.388;2022-09-27T19:02:27;99661.94;;;15.90;56.60
21547;BME280;41275;51.912;4.388;2022-09-27T19:07:51;99666.72;;;15.93;56.59
21547;BME280;41275;51.912;4.388;2022-09-27T19:13:13;99658.28;;;15.86;56.60
21547;BME280;41275;51.912;4.388;2022-09-27T19:18:37;99658.78;;;15.69;56.67
21547;BME280;41275;51.912;4.388;2022-09-27T19:23:59;99658.88;;;15.59;56.54
21547;BME280;41275;51.912;4.388;2022-09-27T19:29:20;99649.53;;;15.62;57.01
21547;BME280;41275;51.912;4.388;2022-09-27T19:34:41;99674.34;;;15.81;56.96
21547;BME280;41275;51.912;4.388;2022-09-27T19:40:03;99679.25;;;15.93;56.97
21547;BME280;41275;51.912;4.388;2022-09-27T19:45:24;99685.53;;;16.02;56.71
21547;BME280;41275;51.912;4.388;2022-09-27T19:50:57;99680.47;;;16.01;57.09
21547;BME280;41275;51.912;4.388;2022-09-27T19:56:22;99685.84;;;16.14;56.80
21547;BME280;41275;51.912;4.388;2022-09-27T20:01:44;99704.31;;;16.30;56.62
21547;BME280;41275;51.912;4.388;2022-09-27T20:07:05;99700.06;;;16.29;56.83
21547;BME280;41275;51.912;4.388;2022-09-27T20:12:27;99719.41;;;16.20;56.73
21547;BME280;41275;51.912;4.388;2022-09-27T20:17:48;99724.75;;;16.20;56.46
21547;BME280;41275;51.912;4.388;2022-09-27T20:23:10;99709.88;;;16.14;56.68
21547;BME280;41275;51.912;4.388;2022-09-27T20:28:32;99712.19;;;16.21;56.65
21547;BME280;41275;51.912;4.388;2022-09-27T20:33:54;99700.00;;;16.15;56.33
21547;BME280;41275;51.912;4.388;2022-09-27T20:39:17;99695.63;;;16.05;56.68
21547;BME280;41275;51.912;4.388;2022-09-27T20:44:38;99702.63;;;16.01;56.58
21547;BME280;41275;51.912;4.388;2022-09-27T20:50:00;99700.53;;;15.98;57.18
21547;BME280;41275;51.912;4.388;2022-09-27T20:55:23;99705.59;;;16.00;57.14
21547;BME280;41275;51.912;4.388;2022-09-27T21:00:45;99684.25;;;15.81;56.96
21547;BME280;41275;51.912;4.388;2022-09-27T21:06:06;99685.16;;;15.71;57.16
21547;BME280;41275;51.912;4.388;2022-09-27T21:11:28;99671.97;;;15.80;56.54
21547;BME280;41275;51.912;4.388;2022-09-27T21:16:49;99660.94;;;15.86;56.05
21547;BME280;41275;51.912;4.388;2022-09-27T21:22:10;99661.16;;;15.90;55.89
21547;BME280;41275;51.912;4.388;2022-09-27T21:27:31;99643.34;;;15.85;56.09
21547;BME280;41275;51.912;4.388;2022-09-27T21:32:54;99635.38;;;15.99;55.89
21547;BME280;41275;51.912;4.388;2022-09-27T21:38:15;99634.03;;;16.02;55.25
21547;BME280;41275;51.912;4.388;2022-09-27T21:43:38;99635.03;;;16.06;55.59
21547;BME280;41275;51.912;4.388;2022-09-27T21:49:02;99630.78;;;16.05;55.62
21547;BME280;41275;51.912;4.388;2022-09-27T21:54:23;99623.13;;;15.98;55.65
21547;BME280;41275;51.912;4.388;2022-09-27T21:59:45;99630.06;;;15.99;55.88
21547;BME280;41275;51.912;4.388;2022-09-27T22:05:06;99628.91;;;16.05;55.87
21547;BME280;41275;51.912;4.388;2022-09-27T22:10:28;99635.16;;;16.14;55.88
21547;BME280;41275;51.912;4.388;2022-09-27T22:15:49;99643.75;;;16.11;55.41
21547;BME280;41275;51.912;4.388;2022-09-27T22:21:14;99665.81;;;16.17;55.56
21547;BME280;41275;51.912;4.388;2022-09-27T22:26:37;99685.69;;;15.92;55.36
21547;BME280;41275;51.912;4.388;2022-09-27T22:31:59;99683.06;;;15.44;55.89
21547;BME280;41275;51.912;4.388;2022-09-27T22:37:20;99681.00;;;15.41;55.99
21547;BME280;41275;51.912;4.388;2022-09-27T22:42:41;99681.72;;;15.46;56.21
21547;BME280;41275;51.912;4.388;2022-09-27T22:48:02;99680.81;;;15.56;55.97
21547;BME280;41275;51.912;4.388;2022-09-27T22:53:26;99654.72;;;15.53;56.11
21547;BME280;41275;51.912;4.388;2022-09-27T22:58:48;99637.94;;;15.53;55.88
21547;BME280;41275;51.912;4.388;2022-09-27T23:04:09;99643.47;;;15.56;55.57
21547;BME280;41275;51.912;4.388;2022-09-27T23:09:30;99633.22;;;15.63;56.19
21547;BME280;41275;51.912;4.388;2022-09-27T23:14:52;99622.44;;;15.74;55.76
21547;BME280;41275;51.912;4.388;2022-09-27T23:20:13;99614.53;;;15.68;55.85
21547;BME280;41275;51.912;4.388;2022-09-27T23:25:34;99601.53;;;15.62;55.81
21547;BME280;41275;51.912;4.388;2022-09-27T23:30:55;99602.88;;;15.59;55.95
21547;BME280;41275;51.912;4.388;2022-09-27T23:36:18;99607.06;;;15.46;56.37
21547;BME280;41275;51.912;4.388;2022-09-27T23:41:40;99609.06;;;15.36;56.51
21547;BME280;41275;51.912;4.388;2022-09-27T23:47:01;99604.47;;;15.22;56.57
21547;BME280;41275;51.912;4.388;2022-09-27T23:52:25;99607.31;;;15.07;56.90
21547;BME280;41275;51.912;4.388;2022-09-27T23:57:46;99605.22;;;15.04;56.68
